sensor_id;sensor_type;location;lat;lon;timestamp;temperature;humidity
5346;DHT22;2695;49.444;11.054;2023-02-02T00:01:36;6.20;99.90
5346;DHT22;2695;49.444;11.054;2023-02-02T00:04:04;6.30;99.90
5346;DHT22;2695;49.444;11.054;2023-02-02T00:06:33;6.40;99.90
5346;DHT22;2695;49.444;11.054;2023-02-02T00:09:01;6.30;99.90
5346;DHT22;2695;49.444;11.054;2023-02-02T00:11:30;6.30;99.90
5346;DHT22;2695;49.444;11.054;2023-02-02T00:13:59;6.30;99.90
5346;DHT22;2695;49.444;11.054;2023-02-02T00:16:41;6.30;99.90
5346;DHT22;2695;49.444;11.054;2023-02-02T00:19:11;6.30;99.90
5346;DHT22;2695;49.444;11.054;2023-02-02T00:21:40;6.20;99.90
5346;DHT22;2695;49.444;11.054;2023-02-02T00:24:11;6.20;99.90
5346;DHT22;2695;49.444;11.054;2023-02-02T00:26:40;6.20;99.90
5346;DHT22;2695;49.444;11.054;2023-02-02T00:29:16;6.20;99.90
5346;DHT22;2695;49.444;11.054;2023-02-02T00:31:44;6.20;99.90
5346;DHT22;2695;49.444;11.054;2023-02-02T00:34:13;6.20;99.90
5346;DHT22;2695;49.444;11.054;2023-02-02T00:36:42;6.30;99.90
5346;DHT22;2695;49.444;11.054;2023-02-02T00:39:13;6.30;99.90
5346;DHT22;2695;49.444;11.054;2023-02-02T00:41:41;6.30;99.90
5346;DHT22;2695;49.444;11.054;2023-02-02T00:44:09;6.30;99.90
5346;DHT22;2695;49.444;11.054;2023-02-02T00:46:56;6.40;99.90
5346;DHT22;2695;49.444;11.054;2023-02-02T00:49:24;6.30;99.90
5346;DHT22;2695;49.444;11.054;2023-02-02T00:51:52;6.30;99.90
5346;DHT22;2695;49.444;11.054;2023-02-02T00:54:20;6.30;99.90
5346;DHT22;2695;49.444;11.054;2023-02-02T00:56:49;6.20;99.90
5346;DHT22;2695;49.444;11.054;2023-02-02T00:59:17;6.20;99.90
5346;DHT22;2695;49.444;11.054;2023-02-02T01:01:45;6.20;99.90
5346;DHT22;2695;49.444;11.054;2023-02-02T01:04:15;6.10;99.90
5346;DHT22;2695;49.444;11.054;2023-02-02T01:06:43;6.10;99.90
5346;DHT22;2695;49.444;11.054;2023-02-02T01:09:12;6.00;99.90
5346;DHT22;2695;49.444;11.054;2023-02-02T01:11:40;6.00;99.90
5346;DHT22;2695;49.444;11.054;2023-02-02T01:14:09;6.00;99.90
5346;DHT22;2695;49.444;11.054;2023-02-02T01:16:37;6.00;99.90
5346;DHT22;2695;49.444;11.054;2023-02-02T01:19:05;6.00;99.90
5346;DHT22;2695;49.444;11.054;2023-02-02T01:21:35;6.00;99.90
5346;DHT22;2695;49.444;11.054;2023-02-02T01:24:03;6.00;99.90
5346;DHT22;2695;49.444;11.054;2023-02-02T01:26:32;6.00;99.90
5346;DHT22;2695;49.444;11.054;2023-02-02T01:29:00;6.00;99.90
5346;DHT22;2695;49.444;11.054;2023-02-02T01:31:28;5.90;99.90
5346;DHT22;2695;49.444;11.054;2023-02-02T01:33:57;5.70;99.90
5346;DHT22;2695;49.444;11.054;2023-02-02T01:36:25;5.60;99.90
5346;DHT22;2695;49.444;11.054;2023-02-02T01:38:54;5.40;99.90
5346;DHT22;2695;49.444;11.054;2023-02-02T01:41:23;5.40;99.90
5346;DHT22;2695;49.444;11.054;2023-02-02T01:43:55;5.30;99.90
5346;DHT22;2695;49.444;11.054;2023-02-02T01:46:26;5.20;99.90
5346;DHT22;2695;49.444;11.054;2023-02-02T01:48:58;5.20;99.90
5346;DHT22;2695;49.444;11.054;2023-02-02T01:51:31;5.10;99.90
5346;DHT22;2695;49.444;11.054;2023-02-02T01:54:05;5.00;99.90
5346;DHT22;2695;49.444;11.054;2023-02-02T01:56:40;4.80;99.90
5346;DHT22;2695;49.444;11.054;2023-02-02T01:59:09;4.40;99.90
5346;DHT22;2695;49.444;11.054;2023-02-02T02:01:39;4.60;99.90
5346;DHT22;2695;49.444;11.054;2023-02-02T02:04:07;4.40;99.90
5346;DHT22;2695;49.444;11.054;2023-02-02T02:06:35;4.30;99.90
5346;DHT22;2695;49.444;11.054;2023-02-02T02:09:05;4.20;99.90
5346;DHT22;2695;49.444;11.054;2023-02-02T02:11:35;4.20;99.90
5346;DHT22;2695;49.444;11.054;2023-02-02T02:14:06;4.00;99.90
5346;DHT22;2695;49.444;11.054;2023-02-02T02:17:00;4.00;99.90
5346;DHT22;2695;49.444;11.054;2023-02-02T02:20:03;3.90;99.90
5346;DHT22;2695;49.444;11.054;2023-02-02T02:26:26;3.60;99.90
5346;DHT22;2695;49.444;11.054;2023-02-02T02:32:12;3.50;99.90
5346;DHT22;2695;49.444;11.054;2023-02-02T02:34:49;3.40;99.90
5346;DHT22;2695;49.444;11.054;2023-02-02T02:37:28;3.40;99.90
5346;DHT22;2695;49.444;11.054;2023-02-02T02:40:02;3.40;99.90
5346;DHT22;2695;49.444;11.054;2023-02-02T02:42:35;3.40;99.90
5346;DHT22;2695;49.444;11.054;2023-02-02T02:45:06;3.40;99.90
5346;DHT22;2695;49.444;11.054;2023-02-02T02:47:36;3.30;99.90
5346;DHT22;2695;49.444;11.054;2023-02-02T02:50:05;3.30;99.90
5346;DHT22;2695;49.444;11.054;2023-02-02T02:52:34;3.30;99.90
5346;DHT22;2695;49.444;11.054;2023-02-02T02:55:04;3.20;99.90
5346;DHT22;2695;49.444;11.054;2023-02-02T02:57:45;3.10;99.90
5346;DHT22;2695;49.444;11.054;2023-02-02T03:00:25;3.10;99.90
5346;DHT22;2695;49.444;11.054;2023-02-02T03:03:04;3.00;99.90
5346;DHT22;2695;49.444;11.054;2023-02-02T03:05:41;2.90;99.90
5346;DHT22;2695;49.444;11.054;2023-02-02T03:08:19;2.90;99.90
5346;DHT22;2695;49.444;11.054;2023-02-02T03:10:47;2.90;99.90
5346;DHT22;2695;49.444;11.054;2023-02-02T03:13:16;2.90;99.90
5346;DHT22;2695;49.444;11.054;2023-02-02T03:15:44;2.90;99.90
5346;DHT22;2695;49.444;11.054;2023-02-02T03:18:16;2.90;99.90
5346;DHT22;2695;49.444;11.054;2023-02-02T03:20:45;2.90;99.90
5346;DHT22;2695;49.444;11.054;2023-02-02T03:23:13;2.90;99.90
5346;DHT22;2695;49.444;11.054;2023-02-02T03:25:42;2.90;99.90
5346;DHT22;2695;49.444;11.054;2023-02-02T03:28:10;2.90;99.90
5346;DHT22;2695;49.444;11.054;2023-02-02T03:30:39;3.00;99.90
5346;DHT22;2695;49.444;11.054;2023-02-02T03:33:09;3.00;99.90
5346;DHT22;2695;49.444;11.054;2023-02-02T03:35:38;3.00;99.90
5346;DHT22;2695;49.444;11.054;2023-02-02T03:38:07;3.10;99.90
5346;DHT22;2695;49.444;11.054;2023-02-02T03:40:35;3.10;99.90
5346;DHT22;2695;49.444;11.054;2023-02-02T03:43:03;3.10;99.90
5346;DHT22;2695;49.444;11.054;2023-02-02T03:45:31;3.10;99.90
5346;DHT22;2695;49.444;11.054;2023-02-02T03:48:02;3.10;99.90
5346;DHT22;2695;49.444;11.054;2023-02-02T03:50:30;3.20;99.90
5346;DHT22;2695;49.444;11.054;2023-02-02T03:52:59;3.30;99.90
5346;DHT22;2695;49.444;11.054;2023-02-02T03:55:27;3.30;99.90
5346;DHT22;2695;49.444;11.054;2023-02-02T03:57:56;3.30;99.90
5346;DHT22;2695;49.444;11.054;2023-02-02T04:00:24;3.40;99.90
5346;DHT22;2695;49.444;11.054;2023-02-02T04:02:52;3.50;99.90
5346;DHT22;2695;49.444;11.054;2023-02-02T04:05:20;3.50;99.90
5346;DHT22;2695;49.444;11.054;2023-02-02T04:07:49;3.50;99.90
5346;DHT22;2695;49.444;11.054;2023-02-02T04:10:18;3.60;99.90
5346;DHT22;2695;49.444;11.054;2023-02-02T04:12:47;3.60;99.90
5346;DHT22;2695;49.444;11.054;2023-02-02T04:15:15;3.60;99.90
5346;DHT22;2695;49.444;11.054;2023-02-02T04:17:43;3.60;99.90
5346;DHT22;2695;49.444;11.054;2023-02-02T04:20:11;3.60;99.90
5346;DHT22;2695;49.444;11.054;2023-02-02T04:22:39;3.70;99.90
5346;DHT22;2695;49.444;11.054;2023-02-02T04:25:07;3.70;99.90
5346;DHT22;2695;49.444;11.054;2023-02-02T04:27:37;3.60;99.90
5346;DHT22;2695;49.444;11.054;2023-02-02T04:30:06;3.40;99.90
5346;DHT22;2695;49.444;11.054;2023-02-02T04:32:34;3.60;99.90
5346;DHT22;2695;49.444;11.054;2023-02-02T04:35:03;3.60;99.90
5346;DHT22;2695;49.444;11.054;2023-02-02T04:37:31;3.70;99.90
5346;DHT22;2695;49.444;11.054;2023-02-02T04:39:59;3.70;99.90
5346;DHT22;2695;49.444;11.054;2023-02-02T04:42:27;3.70;99.90
5346;DHT22;2695;49.444;11.054;2023-02-02T04:44:59;3.70;99.90
5346;DHT22;2695;49.444;11.054;2023-02-02T04:47:27;3.80;99.90
5346;DHT22;2695;49.444;11.054;2023-02-02T04:49:55;3.90;99.90
5346;DHT22;2695;49.444;11.054;2023-02-02T04:52:23;3.90;99.90
5346;DHT22;2695;49.444;11.054;2023-02-02T04:54:51;4.00;99.90
5346;DHT22;2695;49.444;11.054;2023-02-02T04:57:19;4.00;99.90
5346;DHT22;2695;49.444;11.054;2023-02-02T04:59:47;3.90;99.90
5346;DHT22;2695;49.444;11.054;2023-02-02T05:02:16;3.70;99.90
5346;DHT22;2695;49.444;11.054;2023-02-02T05:04:45;3.50;99.90
5346;DHT22;2695;49.444;11.054;2023-02-02T05:07:13;3.30;99.90
5346;DHT22;2695;49.444;11.054;2023-02-02T05:09:41;3.30;99.90
5346;DHT22;2695;49.444;11.054;2023-02-02T05:12:09;3.30;99.90
5346;DHT22;2695;49.444;11.054;2023-02-02T05:14:37;3.30;99.90
5346;DHT22;2695;49.444;11.054;2023-02-02T05:17:05;3.40;99.90
5346;DHT22;2695;49.444;11.054;2023-02-02T05:19:34;3.40;99.90
5346;DHT22;2695;49.444;11.054;2023-02-02T05:22:03;3.50;99.90
5346;DHT22;2695;49.444;11.054;2023-02-02T05:24:31;3.50;99.90
5346;DHT22;2695;49.444;11.054;2023-02-02T05:26:59;3.60;99.90
5346;DHT22;2695;49.444;11.054;2023-02-02T05:29:27;3.60;99.90
5346;DHT22;2695;49.444;11.054;2023-02-02T05:31:55;3.60;99.90
5346;DHT22;2695;49.444;11.054;2023-02-02T05:34:23;3.60;99.90
5346;DHT22;2695;49.444;11.054;2023-02-02T05:36:53;3.70;99.90
5346;DHT22;2695;49.444;11.054;2023-02-02T05:39:21;3.70;99.90
5346;DHT22;2695;49.444;11.054;2023-02-02T05:41:49;3.70;99.90
5346;DHT22;2695;49.444;11.054;2023-02-02T05:44:20;3.70;99.90
5346;DHT22;2695;49.444;11.054;2023-02-02T05:46:51;3.70;99.90
5346;DHT22;2695;49.444;11.054;2023-02-02T05:49:19;3.70;99.90
5346;DHT22;2695;49.444;11.054;2023-02-02T05:51:50;3.70;99.90
5346;DHT22;2695;49.444;11.054;2023-02-02T05:54:20;3.60;99.90
5346;DHT22;2695;49.444;11.054;2023-02-02T05:56:50;3.60;99.90
5346;DHT22;2695;49.444;11.054;2023-02-02T05:59:20;3.60;99.90
5346;DHT22;2695;49.444;11.054;2023-02-02T06:01:48;3.60;99.90
5346;DHT22;2695;49.444;11.054;2023-02-02T06:04:17;3.50;99.90
5346;DHT22;2695;49.444;11.054;2023-02-02T06:06:47;3.50;99.90
5346;DHT22;2695;49.444;11.054;2023-02-02T06:09:15;3.50;99.90
5346;DHT22;2695;49.444;11.054;2023-02-02T06:11:45;3.60;99.90
5346;DHT22;2695;49.444;11.054;2023-02-02T06:14:13;3.40;99.90
5346;DHT22;2695;49.444;11.054;2023-02-02T06:16:41;3.40;99.90
5346;DHT22;2695;49.444;11.054;2023-02-02T06:19:09;3.40;99.90
5346;DHT22;2695;49.444;11.054;2023-02-02T06:21:38;3.40;99.90
5346;DHT22;2695;49.444;11.054;2023-02-02T06:24:06;3.40;99.90
5346;DHT22;2695;49.444;11.054;2023-02-02T06:26:35;3.50;99.90
5346;DHT22;2695;49.444;11.054;2023-02-02T06:29:04;3.40;99.90
5346;DHT22;2695;49.444;11.054;2023-02-02T06:31:33;3.40;99.90
5346;DHT22;2695;49.444;11.054;2023-02-02T06:34:01;3.40;99.90
5346;DHT22;2695;49.444;11.054;2023-02-02T06:36:29;4.40;99.90
5346;DHT22;2695;49.444;11.054;2023-02-02T06:38:57;3.40;99.90
5346;DHT22;2695;49.444;11.054;2023-02-02T06:41:25;3.40;99.90
5346;DHT22;2695;49.444;11.054;2023-02-02T06:43:54;3.40;99.90
5346;DHT22;2695;49.444;11.054;2023-02-02T06:46:23;3.70;99.90
5346;DHT22;2695;49.444;11.054;2023-02-02T06:48:52;3.50;99.90
5346;DHT22;2695;49.444;11.054;2023-02-02T06:51:20;3.40;99.90
5346;DHT22;2695;49.444;11.054;2023-02-02T06:53:48;3.50;99.90
5346;DHT22;2695;49.444;11.054;2023-02-02T06:56:17;3.50;99.90
5346;DHT22;2695;49.444;11.054;2023-02-02T06:58:45;3.60;99.90
5346;DHT22;2695;49.444;11.054;2023-02-02T07:01:13;3.60;99.90
5346;DHT22;2695;49.444;11.054;2023-02-02T07:03:47;3.60;99.90
5346;DHT22;2695;49.444;11.054;2023-02-02T07:06:19;3.60;99.90
5346;DHT22;2695;49.444;11.054;2023-02-02T07:08:48;3.80;99.90
5346;DHT22;2695;49.444;11.054;2023-02-02T07:11:32;4.90;99.90
5346;DHT22;2695;49.444;11.054;2023-02-02T07:14:06;3.70;99.90
5346;DHT22;2695;49.444;11.054;2023-02-02T07:16:34;3.70;99.90
5346;DHT22;2695;49.444;11.054;2023-02-02T07:19:20;4.00;99.90
5346;DHT22;2695;49.444;11.054;2023-02-02T07:21:48;3.70;99.90
5346;DHT22;2695;49.444;11.054;2023-02-02T07:24:16;3.80;99.90
5346;DHT22;2695;49.444;11.054;2023-02-02T07:26:44;3.80;99.90
5346;DHT22;2695;49.444;11.054;2023-02-02T07:29:13;3.80;99.90
5346;DHT22;2695;49.444;11.054;2023-02-02T07:31:41;3.90;99.90
5346;DHT22;2695;49.444;11.054;2023-02-02T07:34:09;3.90;99.90
5346;DHT22;2695;49.444;11.054;2023-02-02T07:36:39;3.90;99.90
5346;DHT22;2695;49.444;11.054;2023-02-02T07:39:08;3.90;99.90
5346;DHT22;2695;49.444;11.054;2023-02-02T07:41:36;4.20;99.90
5346;DHT22;2695;49.444;11.054;2023-02-02T07:44:05;4.00;99.90
5346;DHT22;2695;49.444;11.054;2023-02-02T07:46:33;4.20;99.90
5346;DHT22;2695;49.444;11.054;2023-02-02T07:49:02;4.40;99.90
5346;DHT22;2695;49.444;11.054;2023-02-02T07:51:34;4.30;99.90
5346;DHT22;2695;49.444;11.054;2023-02-02T07:54:07;4.50;99.90
5346;DHT22;2695;49.444;11.054;2023-02-02T07:56:37;4.20;99.90
5346;DHT22;2695;49.444;11.054;2023-02-02T07:59:05;4.30;99.90
5346;DHT22;2695;49.444;11.054;2023-02-02T08:01:34;4.30;99.90
5346;DHT22;2695;49.444;11.054;2023-02-02T08:04:02;4.70;99.90
5346;DHT22;2695;49.444;11.054;2023-02-02T08:06:32;4.40;99.90
5346;DHT22;2695;49.444;11.054;2023-02-02T08:09:02;4.30;99.90
5346;DHT22;2695;49.444;11.054;2023-02-02T08:11:35;4.50;99.90
5346;DHT22;2695;49.444;11.054;2023-02-02T08:14:05;4.50;99.90
5346;DHT22;2695;49.444;11.054;2023-02-02T08:16:36;4.50;99.90
5346;DHT22;2695;49.444;11.054;2023-02-02T08:19:04;4.60;99.90
5346;DHT22;2695;49.444;11.054;2023-02-02T08:21:33;4.50;99.90
5346;DHT22;2695;49.444;11.054;2023-02-02T08:24:02;4.70;99.90
5346;DHT22;2695;49.444;11.054;2023-02-02T08:26:31;4.50;99.90
5346;DHT22;2695;49.444;11.054;2023-02-02T08:29:02;4.70;99.90
5346;DHT22;2695;49.444;11.054;2023-02-02T08:31:32;4.30;99.90
5346;DHT22;2695;49.444;11.054;2023-02-02T08:34:01;4.50;99.90
5346;DHT22;2695;49.444;11.054;2023-02-02T08:36:29;4.40;99.90
5346;DHT22;2695;49.444;11.054;2023-02-02T08:39:00;4.40;99.90
5346;DHT22;2695;49.444;11.054;2023-02-02T08:41:29;4.50;99.90
5346;DHT22;2695;49.444;11.054;2023-02-02T08:43:57;4.50;99.90
5346;DHT22;2695;49.444;11.054;2023-02-02T08:46:27;4.40;99.90
5346;DHT22;2695;49.444;11.054;2023-02-02T08:48:55;4.40;99.90
5346;DHT22;2695;49.444;11.054;2023-02-02T08:51:23;4.40;99.90
5346;DHT22;2695;49.444;11.054;2023-02-02T08:53:51;4.40;99.90
5346;DHT22;2695;49.444;11.054;2023-02-02T08:56:20;4.40;99.90
5346;DHT22;2695;49.444;11.054;2023-02-02T08:58:50;4.40;99.90
5346;DHT22;2695;49.444;11.054;2023-02-02T09:01:20;4.40;99.90
5346;DHT22;2695;49.444;11.054;2023-02-02T09:03:54;4.30;99.90
5346;DHT22;2695;49.444;11.054;2023-02-02T09:06:26;4.20;99.90
5346;DHT22;2695;49.444;11.054;2023-02-02T09:08:55;4.20;99.90
5346;DHT22;2695;49.444;11.054;2023-02-02T09:11:23;4.20;99.90
5346;DHT22;2695;49.444;11.054;2023-02-02T09:13:54;4.30;99.90
5346;DHT22;2695;49.444;11.054;2023-02-02T09:16:24;4.30;99.90
5346;DHT22;2695;49.444;11.054;2023-02-02T09:18:55;4.30;99.90
5346;DHT22;2695;49.444;11.054;2023-02-02T09:21:24;4.90;99.90
5346;DHT22;2695;49.444;11.054;2023-02-02T09:23:52;4.40;99.90
5346;DHT22;2695;49.444;11.054;2023-02-02T09:26:22;4.50;99.90
5346;DHT22;2695;49.444;11.054;2023-02-02T09:28:52;4.50;99.90
5346;DHT22;2695;49.444;11.054;2023-02-02T09:31:21;4.40;99.90
5346;DHT22;2695;49.444;11.054;2023-02-02T09:33:50;4.40;99.90
5346;DHT22;2695;49.444;11.054;2023-02-02T09:36:22;4.40;99.90
5346;DHT22;2695;49.444;11.054;2023-02-02T09:38:50;4.40;99.90
5346;DHT22;2695;49.444;11.054;2023-02-02T09:41:58;4.60;99.90
5346;DHT22;2695;49.444;11.054;2023-02-02T09:47:22;4.50;99.90
5346;DHT22;2695;49.444;11.054;2023-02-02T09:49:57;4.50;99.90
5346;DHT22;2695;49.444;11.054;2023-02-02T09:52:32;4.40;99.90
5346;DHT22;2695;49.444;11.054;2023-02-02T09:55:04;4.40;99.90
5346;DHT22;2695;49.444;11.054;2023-02-02T09:57:38;4.50;99.90
5346;DHT22;2695;49.444;11.054;2023-02-02T10:00:18;4.50;99.90
5346;DHT22;2695;49.444;11.054;2023-02-02T10:02:56;4.60;99.90
5346;DHT22;2695;49.444;11.054;2023-02-02T10:05:34;4.60;99.90
5346;DHT22;2695;49.444;11.054;2023-02-02T10:08:16;4.70;99.90
5346;DHT22;2695;49.444;11.054;2023-02-02T10:11:02;4.80;99.90
5346;DHT22;2695;49.444;11.054;2023-02-02T10:13:33;4.80;99.90
5346;DHT22;2695;49.444;11.054;2023-02-02T10:16:09;4.90;99.90
5346;DHT22;2695;49.444;11.054;2023-02-02T10:18:44;5.20;99.90
5346;DHT22;2695;49.444;11.054;2023-02-02T10:21:21;5.00;99.90
5346;DHT22;2695;49.444;11.054;2023-02-02T10:23:52;5.20;99.90
5346;DHT22;2695;49.444;11.054;2023-02-02T10:26:22;5.20;99.90
5346;DHT22;2695;49.444;11.054;2023-02-02T10:29:04;5.60;99.90
5346;DHT22;2695;49.444;11.054;2023-02-02T10:31:41;5.40;99.90
5346;DHT22;2695;49.444;11.054;2023-02-02T10:34:20;5.60;99.90
5346;DHT22;2695;49.444;11.054;2023-02-02T10:36:59;5.80;99.90
5346;DHT22;2695;49.444;11.054;2023-02-02T10:39:38;6.00;99.90
5346;DHT22;2695;49.444;11.054;2023-02-02T10:42:16;6.10;99.90
5346;DHT22;2695;49.444;11.054;2023-02-02T10:44:49;6.20;99.90
5346;DHT22;2695;49.444;11.054;2023-02-02T10:47:24;6.40;99.90
5346;DHT22;2695;49.444;11.054;2023-02-02T10:49:59;6.30;99.90
5346;DHT22;2695;49.444;11.054;2023-02-02T10:52:32;7.00;99.90
5346;DHT22;2695;49.444;11.054;2023-02-02T10:55:06;6.40;99.90
5346;DHT22;2695;49.444;11.054;2023-02-02T10:57:57;6.50;99.90
5346;DHT22;2695;49.444;11.054;2023-02-02T11:00:32;6.50;99.90
5346;DHT22;2695;49.444;11.054;2023-02-02T11:03:02;6.50;99.90
5346;DHT22;2695;49.444;11.054;2023-02-02T11:05:33;6.70;99.90
5346;DHT22;2695;49.444;11.054;2023-02-02T11:08:30;6.70;99.90
5346;DHT22;2695;49.444;11.054;2023-02-02T11:11:10;6.80;99.90
5346;DHT22;2695;49.444;11.054;2023-02-02T11:13:41;6.90;99.90
5346;DHT22;2695;49.444;11.054;2023-02-02T11:16:23;7.00;99.90
5346;DHT22;2695;49.444;11.054;2023-02-02T11:19:21;7.00;99.90
5346;DHT22;2695;49.444;11.054;2023-02-02T11:21:51;7.00;99.90
5346;DHT22;2695;49.444;11.054;2023-02-02T11:24:25;7.10;99.90
5346;DHT22;2695;49.444;11.054;2023-02-02T11:26:58;7.20;99.90
5346;DHT22;2695;49.444;11.054;2023-02-02T11:29:29;7.30;99.90
5346;DHT22;2695;49.444;11.054;2023-02-02T11:32:17;7.10;99.90
5346;DHT22;2695;49.444;11.054;2023-02-02T11:34:46;7.40;99.90
5346;DHT22;2695;49.444;11.054;2023-02-02T11:37:19;7.40;99.90
5346;DHT22;2695;49.444;11.054;2023-02-02T11:39:47;7.40;99.90
5346;DHT22;2695;49.444;11.054;2023-02-02T11:42:22;7.50;99.90
5346;DHT22;2695;49.444;11.054;2023-02-02T11:44:57;7.50;99.90
5346;DHT22;2695;49.444;11.054;2023-02-02T11:47:27;7.60;99.90
5346;DHT22;2695;49.444;11.054;2023-02-02T11:49:58;7.40;99.90
5346;DHT22;2695;49.444;11.054;2023-02-02T11:52:30;7.70;99.90
5346;DHT22;2695;49.444;11.054;2023-02-02T11:55:02;7.70;99.90
5346;DHT22;2695;49.444;11.054;2023-02-02T11:57:37;7.70;99.90
5346;DHT22;2695;49.444;11.054;2023-02-02T12:00:15;7.80;99.90
5346;DHT22;2695;49.444;11.054;2023-02-02T12:02:45;7.70;99.90
5346;DHT22;2695;49.444;11.054;2023-02-02T12:05:32;7.70;99.90
5346;DHT22;2695;49.444;11.054;2023-02-02T12:08:01;8.00;99.90
5346;DHT22;2695;49.444;11.054;2023-02-02T12:10:37;7.90;99.90
5346;DHT22;2695;49.444;11.054;2023-02-02T12:13:14;7.80;99.90
5346;DHT22;2695;49.444;11.054;2023-02-02T12:15:49;8.20;99.90
5346;DHT22;2695;49.444;11.054;2023-02-02T12:18:38;7.80;99.90
5346;DHT22;2695;49.444;11.054;2023-02-02T12:21:13;7.80;99.90
5346;DHT22;2695;49.444;11.054;2023-02-02T12:23:54;8.40;99.90
5346;DHT22;2695;49.444;11.054;2023-02-02T12:26:27;7.70;99.90
5346;DHT22;2695;49.444;11.054;2023-02-02T12:29:13;7.70;99.90
5346;DHT22;2695;49.444;11.054;2023-02-02T12:31:58;7.80;99.90
5346;DHT22;2695;49.444;11.054;2023-02-02T12:34:42;7.90;99.90
5346;DHT22;2695;49.444;11.054;2023-02-02T12:37:22;8.00;99.90
5346;DHT22;2695;49.444;11.054;2023-02-02T12:40:21;8.10;99.90
5346;DHT22;2695;49.444;11.054;2023-02-02T12:43:04;8.10;99.90
5346;DHT22;2695;49.444;11.054;2023-02-02T12:49:06;8.00;99.90
5346;DHT22;2695;49.444;11.054;2023-02-02T12:51:52;8.00;99.90
5346;DHT22;2695;49.444;11.054;2023-02-02T12:54:42;7.90;99.90
5346;DHT22;2695;49.444;11.054;2023-02-02T12:57:25;7.90;99.90
5346;DHT22;2695;49.444;11.054;2023-02-02T13:00:35;7.80;99.90
5346;DHT22;2695;49.444;11.054;2023-02-02T13:03:20;7.80;99.90
5346;DHT22;2695;49.444;11.054;2023-02-02T13:06:02;7.80;99.90
5346;DHT22;2695;49.444;11.054;2023-02-02T13:08:37;7.80;99.90
5346;DHT22;2695;49.444;11.054;2023-02-02T13:11:16;7.70;99.90
5346;DHT22;2695;49.444;11.054;2023-02-02T13:14:00;8.00;99.90
5346;DHT22;2695;49.444;11.054;2023-02-02T13:16:36;8.00;99.90
5346;DHT22;2695;49.444;11.054;2023-02-02T13:19:12;8.10;99.90
5346;DHT22;2695;49.444;11.054;2023-02-02T13:21:44;8.20;99.90
5346;DHT22;2695;49.444;11.054;2023-02-02T13:24:20;8.30;99.90
5346;DHT22;2695;49.444;11.054;2023-02-02T13:27:00;8.10;99.90
5346;DHT22;2695;49.444;11.054;2023-02-02T13:29:34;8.20;99.90
5346;DHT22;2695;49.444;11.054;2023-02-02T13:32:23;8.20;99.90
5346;DHT22;2695;49.444;11.054;2023-02-02T13:35:02;8.30;99.90
5346;DHT22;2695;49.444;11.054;2023-02-02T13:37:43;8.20;99.90
5346;DHT22;2695;49.444;11.054;2023-02-02T13:40:24;8.30;99.90
5346;DHT22;2695;49.444;11.054;2023-02-02T13:43:10;8.30;99.90
5346;DHT22;2695;49.444;11.054;2023-02-02T13:45:59;8.30;99.90
5346;DHT22;2695;49.444;11.054;2023-02-02T13:48:40;8.20;99.90
5346;DHT22;2695;49.444;11.054;2023-02-02T13:51:45;8.10;99.90
5346;DHT22;2695;49.444;11.054;2023-02-02T14:00:52;8.00;99.90
5346;DHT22;2695;49.444;11.054;2023-02-02T14:03:34;7.90;99.90
5346;DHT22;2695;49.444;11.054;2023-02-02T14:06:09;7.80;99.90
5346;DHT22;2695;49.444;11.054;2023-02-02T14:08:46;7.80;99.90
5346;DHT22;2695;49.444;11.054;2023-02-02T14:11:20;7.70;99.90
5346;DHT22;2695;49.444;11.054;2023-02-02T14:13:51;7.70;99.90
5346;DHT22;2695;49.444;11.054;2023-02-02T14:16:49;7.70;99.90
5346;DHT22;2695;49.444;11.054;2023-02-02T14:19:48;7.50;99.90
5346;DHT22;2695;49.444;11.054;2023-02-02T14:22:42;7.60;99.90
5346;DHT22;2695;49.444;11.054;2023-02-02T14:25:48;7.50;99.90
5346;DHT22;2695;49.444;11.054;2023-02-02T14:28:41;7.50;99.90
5346;DHT22;2695;49.444;11.054;2023-02-02T14:31:52;7.50;99.90
5346;DHT22;2695;49.444;11.054;2023-02-02T14:34:32;7.50;99.90
5346;DHT22;2695;49.444;11.054;2023-02-02T14:37:33;7.50;99.90
5346;DHT22;2695;49.444;11.054;2023-02-02T14:40:29;7.50;99.90
5346;DHT22;2695;49.444;11.054;2023-02-02T14:43:09;7.50;99.90
5346;DHT22;2695;49.444;11.054;2023-02-02T14:46:18;7.50;99.90
5346;DHT22;2695;49.444;11.054;2023-02-02T14:49:16;7.50;99.90
5346;DHT22;2695;49.444;11.054;2023-02-02T14:51:48;7.60;99.90
5346;DHT22;2695;49.444;11.054;2023-02-02T14:54:21;7.50;99.90
5346;DHT22;2695;49.444;11.054;2023-02-02T14:56:56;7.70;99.90
5346;DHT22;2695;49.444;11.054;2023-02-02T14:59:28;7.30;99.90
5346;DHT22;2695;49.444;11.054;2023-02-02T15:02:08;7.30;99.90
5346;DHT22;2695;49.444;11.054;2023-02-02T15:04:41;7.20;99.90
5346;DHT22;2695;49.444;11.054;2023-02-02T15:07:48;7.20;99.90
5346;DHT22;2695;49.444;11.054;2023-02-02T15:14:10;6.70;99.90
5346;DHT22;2695;49.444;11.054;2023-02-02T15:16:41;6.60;99.90
5346;DHT22;2695;49.444;11.054;2023-02-02T15:19:22;6.50;99.90
5346;DHT22;2695;49.444;11.054;2023-02-02T15:21:59;6.40;99.90
5346;DHT22;2695;49.444;11.054;2023-02-02T15:24:31;6.30;99.90
5346;DHT22;2695;49.444;11.054;2023-02-02T15:27:03;6.20;99.90
5346;DHT22;2695;49.444;11.054;2023-02-02T15:29:39;6.20;99.90
5346;DHT22;2695;49.444;11.054;2023-02-02T15:32:15;6.20;99.90
5346;DHT22;2695;49.444;11.054;2023-02-02T15:34:46;6.30;99.90
5346;DHT22;2695;49.444;11.054;2023-02-02T15:37:19;6.10;99.90
5346;DHT22;2695;49.444;11.054;2023-02-02T15:39:51;6.00;99.90
5346;DHT22;2695;49.444;11.054;2023-02-02T15:42:23;6.00;99.90
5346;DHT22;2695;49.444;11.054;2023-02-02T15:45:28;5.90;99.90
5346;DHT22;2695;49.444;11.054;2023-02-02T15:47:58;5.80;99.90
5346;DHT22;2695;49.444;11.054;2023-02-02T15:50:27;5.80;99.90
5346;DHT22;2695;49.444;11.054;2023-02-02T15:52:57;5.80;99.90
5346;DHT22;2695;49.444;11.054;2023-02-02T15:55:30;5.80;99.90
5346;DHT22;2695;49.444;11.054;2023-02-02T15:58:27;5.80;99.90
5346;DHT22;2695;49.444;11.054;2023-02-02T16:00:58;5.60;99.90
5346;DHT22;2695;49.444;11.054;2023-02-02T16:03:36;5.70;99.90
5346;DHT22;2695;49.444;11.054;2023-02-02T16:06:06;5.60;99.90
5346;DHT22;2695;49.444;11.054;2023-02-02T16:08:37;5.70;99.90
5346;DHT22;2695;49.444;11.054;2023-02-02T16:11:09;5.60;99.90
5346;DHT22;2695;49.444;11.054;2023-02-02T16:13:39;5.60;99.90
5346;DHT22;2695;49.444;11.054;2023-02-02T16:16:21;5.80;99.90
5346;DHT22;2695;49.444;11.054;2023-02-02T16:19:02;5.50;99.90
5346;DHT22;2695;49.444;11.054;2023-02-02T16:21:36;5.60;99.90
5346;DHT22;2695;49.444;11.054;2023-02-02T16:24:12;5.60;99.90
5346;DHT22;2695;49.444;11.054;2023-02-02T16:26:42;5.60;99.90
5346;DHT22;2695;49.444;11.054;2023-02-02T16:29:14;5.60;99.90
5346;DHT22;2695;49.444;11.054;2023-02-02T16:31:56;5.60;99.90
5346;DHT22;2695;49.444;11.054;2023-02-02T16:34:48;5.60;99.90
5346;DHT22;2695;49.444;11.054;2023-02-02T16:37:32;5.50;99.90
5346;DHT22;2695;49.444;11.054;2023-02-02T16:40:23;5.60;99.90
5346;DHT22;2695;49.444;11.054;2023-02-02T16:43:12;5.60;99.90
5346;DHT22;2695;49.444;11.054;2023-02-02T16:46:01;5.60;99.90
5346;DHT22;2695;49.444;11.054;2023-02-02T16:48:38;5.80;99.90
5346;DHT22;2695;49.444;11.054;2023-02-02T16:54:18;5.60;99.90
5346;DHT22;2695;49.444;11.054;2023-02-02T16:56:50;5.80;99.90
5346;DHT22;2695;49.444;11.054;2023-02-02T16:59:31;5.60;99.90
5346;DHT22;2695;49.444;11.054;2023-02-02T17:02:04;5.70;99.90
5346;DHT22;2695;49.444;11.054;2023-02-02T17:04:46;5.60;99.90
5346;DHT22;2695;49.444;11.054;2023-02-02T17:07:15;5.60;99.90
5346;DHT22;2695;49.444;11.054;2023-02-02T17:09:46;5.60;99.90
5346;DHT22;2695;49.444;11.054;2023-02-02T17:12:24;5.60;99.90